sensor_id;sensor_type;location;lat;lon;timestamp;temperature;humidity
15983;DHT22;14442;50.196;8.096;2022-09-09T00:01:46;22.50;65.80
15983;DHT22;14442;50.196;8.096;2022-09-09T00:04:24;22.50;65.80
15983;DHT22;14442;50.196;8.096;2022-09-09T00:06:59;22.50;65.80
15983;DHT22;14442;50.196;8.096;2022-09-09T00:09:29;22.50;65.70
15983;DHT22;14442;50.196;8.096;2022-09-09T00:12:02;22.50;65.80
15983;DHT22;14442;50.196;8.096;2022-09-09T00:14:38;22.50;65.80
15983;DHT22;14442;50.196;8.096;2022-09-09T00:17:11;22.50;65.80
15983;DHT22;14442;50.196;8.096;2022-09-09T00:19:41;22.50;65.80
15983;DHT22;14442;50.196;8.096;2022-09-09T00:22:16;22.50;65.80
15983;DHT22;14442;50.196;8.096;2022-09-09T00:24:45;22.50;65.90
15983;DHT22;14442;50.196;8.096;2022-09-09T00:27:19;22.50;65.80
15983;DHT22;14442;50.196;8.096;2022-09-09T00:29:51;22.50;65.80
15983;DHT22;14442;50.196;8.096;2022-09-09T00:32:20;22.50;65.80
15983;DHT22;14442;50.196;8.096;2022-09-09T00:34:49;22.50;65.90
15983;DHT22;14442;50.196;8.096;2022-09-09T00:37:19;22.40;65.80
15983;DHT22;14442;50.196;8.096;2022-09-09T00:39:47;22.40;65.80
15983;DHT22;14442;50.196;8.096;2022-09-09T00:42:16;22.40;65.70
15983;DHT22;14442;50.196;8.096;2022-09-09T00:44:52;22.40;65.70
15983;DHT22;14442;50.196;8.096;2022-09-09T00:47:39;22.40;65.70
15983;DHT22;14442;50.196;8.096;2022-09-09T00:50:31;22.40;65.70
15983;DHT22;14442;50.196;8.096;2022-09-09T00:53:13;22.40;65.60
15983;DHT22;14442;50.196;8.096;2022-09-09T00:55:47;22.30;65.50
15983;DHT22;14442;50.196;8.096;2022-09-09T00:58:14;22.40;65.50
15983;DHT22;14442;50.196;8.096;2022-09-09T01:00:45;22.30;66.10
15983;DHT22;14442;50.196;8.096;2022-09-09T01:03:22;22.30;65.40
15983;DHT22;14442;50.196;8.096;2022-09-09T01:05:59;22.30;65.30
15983;DHT22;14442;50.196;8.096;2022-09-09T01:08:54;22.30;65.30
15983;DHT22;14442;50.196;8.096;2022-09-09T01:11:24;22.30;65.30
15983;DHT22;14442;50.196;8.096;2022-09-09T01:14:00;22.30;65.30
15983;DHT22;14442;50.196;8.096;2022-09-09T01:16:31;22.30;65.30
15983;DHT22;14442;50.196;8.096;2022-09-09T01:18:59;22.30;65.20
15983;DHT22;14442;50.196;8.096;2022-09-09T01:21:35;22.30;65.20
15983;DHT22;14442;50.196;8.096;2022-09-09T01:24:13;22.30;65.30
15983;DHT22;14442;50.196;8.096;2022-09-09T01:26:44;22.30;65.20
15983;DHT22;14442;50.196;8.096;2022-09-09T01:29:13;22.20;65.10
15983;DHT22;14442;50.196;8.096;2022-09-09T01:31:41;22.30;65.20
15983;DHT22;14442;50.196;8.096;2022-09-09T01:34:10;22.20;65.00
15983;DHT22;14442;50.196;8.096;2022-09-09T01:36:41;22.20;65.00
15983;DHT22;14442;50.196;8.096;2022-09-09T01:39:10;22.20;65.00
15983;DHT22;14442;50.196;8.096;2022-09-09T01:41:38;22.20;64.90
15983;DHT22;14442;50.196;8.096;2022-09-09T01:44:07;22.20;64.90
15983;DHT22;14442;50.196;8.096;2022-09-09T01:46:34;22.20;64.90
15983;DHT22;14442;50.196;8.096;2022-09-09T01:49:03;22.20;64.90
15983;DHT22;14442;50.196;8.096;2022-09-09T01:51:31;22.20;64.90
15983;DHT22;14442;50.196;8.096;2022-09-09T01:53:58;22.20;64.90
15983;DHT22;14442;50.196;8.096;2022-09-09T01:56:35;22.20;64.90
15983;DHT22;14442;50.196;8.096;2022-09-09T01:59:16;22.20;64.90
15983;DHT22;14442;50.196;8.096;2022-09-09T02:01:53;22.10;64.80
15983;DHT22;14442;50.196;8.096;2022-09-09T02:04:31;22.20;64.90
15983;DHT22;14442;50.196;8.096;2022-09-09T02:07:02;22.10;64.70
15983;DHT22;14442;50.196;8.096;2022-09-09T02:09:32;22.10;64.80
15983;DHT22;14442;50.196;8.096;2022-09-09T02:12:04;22.10;64.80
15983;DHT22;14442;50.196;8.096;2022-09-09T02:14:37;22.10;64.70
15983;DHT22;14442;50.196;8.096;2022-09-09T02:17:09;22.10;64.70
15983;DHT22;14442;50.196;8.096;2022-09-09T02:19:39;22.10;64.80
15983;DHT22;14442;50.196;8.096;2022-09-09T02:22:07;22.10;64.70
15983;DHT22;14442;50.196;8.096;2022-09-09T02:24:36;22.10;64.70
15983;DHT22;14442;50.196;8.096;2022-09-09T02:27:05;22.10;64.70
15983;DHT22;14442;50.196;8.096;2022-09-09T02:29:37;22.10;64.70
15983;DHT22;14442;50.196;8.096;2022-09-09T02:32:08;22.10;65.40
15983;DHT22;14442;50.196;8.096;2022-09-09T02:34:39;22.10;64.60
15983;DHT22;14442;50.196;8.096;2022-09-09T02:37:08;22.10;64.70
15983;DHT22;14442;50.196;8.096;2022-09-09T02:39:36;22.10;64.70
15983;DHT22;14442;50.196;8.096;2022-09-09T02:42:04;22.10;64.70
15983;DHT22;14442;50.196;8.096;2022-09-09T02:44:30;22.10;64.70
15983;DHT22;14442;50.196;8.096;2022-09-09T02:47:11;22.10;64.70
15983;DHT22;14442;50.196;8.096;2022-09-09T02:49:51;22.00;64.60
15983;DHT22;14442;50.196;8.096;2022-09-09T02:52:21;22.00;64.60
15983;DHT22;14442;50.196;8.096;2022-09-09T02:54:54;22.00;64.60
15983;DHT22;14442;50.196;8.096;2022-09-09T02:57:27;22.00;64.60
15983;DHT22;14442;50.196;8.096;2022-09-09T02:59:57;22.00;64.60
15983;DHT22;14442;50.196;8.096;2022-09-09T03:02:25;22.00;64.60
15983;DHT22;14442;50.196;8.096;2022-09-09T03:04:52;22.00;64.60
15983;DHT22;14442;50.196;8.096;2022-09-09T03:07:19;22.00;64.60
15983;DHT22;14442;50.196;8.096;2022-09-09T03:09:45;22.00;64.60
15983;DHT22;14442;50.196;8.096;2022-09-09T03:12:12;22.00;64.60
15983;DHT22;14442;50.196;8.096;2022-09-09T03:14:39;22.00;64.60
15983;DHT22;14442;50.196;8.096;2022-09-09T03:17:06;22.00;64.50
15983;DHT22;14442;50.196;8.096;2022-09-09T03:19:35;22.00;64.50
15983;DHT22;14442;50.196;8.096;2022-09-09T03:22:03;22.00;64.50
15983;DHT22;14442;50.196;8.096;2022-09-09T03:24:30;22.00;64.50
15983;DHT22;14442;50.196;8.096;2022-09-09T03:26:57;22.00;64.50
15983;DHT22;14442;50.196;8.096;2022-09-09T03:29:24;21.90;64.50
15983;DHT22;14442;50.196;8.096;2022-09-09T03:31:50;22.00;64.50
15983;DHT22;14442;50.196;8.096;2022-09-09T03:34:17;21.90;64.40
15983;DHT22;14442;50.196;8.096;2022-09-09T03:36:45;22.00;64.50
15983;DHT22;14442;50.196;8.096;2022-09-09T03:39:13;22.00;64.50
15983;DHT22;14442;50.196;8.096;2022-09-09T03:41:40;22.00;64.50
15983;DHT22;14442;50.196;8.096;2022-09-09T03:44:07;21.90;64.40
15983;DHT22;14442;50.196;8.096;2022-09-09T03:46:34;21.90;64.50
15983;DHT22;14442;50.196;8.096;2022-09-09T03:49:00;21.90;64.40
15983;DHT22;14442;50.196;8.096;2022-09-09T03:51:27;21.90;64.40
15983;DHT22;14442;50.196;8.096;2022-09-09T03:53:55;21.90;64.50
15983;DHT22;14442;50.196;8.096;2022-09-09T03:56:23;21.90;64.50
15983;DHT22;14442;50.196;8.096;2022-09-09T03:58:50;21.90;64.50
15983;DHT22;14442;50.196;8.096;2022-09-09T04:01:17;21.90;64.50
15983;DHT22;14442;50.196;8.096;2022-09-09T04:03:44;21.90;64.60
15983;DHT22;14442;50.196;8.096;2022-09-09T04:06:12;21.90;64.60
15983;DHT22;14442;50.196;8.096;2022-09-09T04:08:40;21.90;64.60
15983;DHT22;14442;50.196;8.096;2022-09-09T04:11:08;21.90;64.70
15983;DHT22;14442;50.196;8.096;2022-09-09T04:13:36;21.90;64.50
15983;DHT22;14442;50.196;8.096;2022-09-09T04:16:05;21.90;64.50
15983;DHT22;14442;50.196;8.096;2022-09-09T04:18:32;21.90;64.60
15983;DHT22;14442;50.196;8.096;2022-09-09T04:20:59;21.90;64.50
15983;DHT22;14442;50.196;8.096;2022-09-09T04:23:27;21.80;64.50
15983;DHT22;14442;50.196;8.096;2022-09-09T04:25:56;21.90;64.50
15983;DHT22;14442;50.196;8.096;2022-09-09T04:28:26;21.80;64.50
15983;DHT22;14442;50.196;8.096;2022-09-09T04:30:53;21.80;64.40
15983;DHT22;14442;50.196;8.096;2022-09-09T04:33:21;21.80;64.50
15983;DHT22;14442;50.196;8.096;2022-09-09T04:35:48;21.90;64.60
15983;DHT22;14442;50.196;8.096;2022-09-09T04:38:16;21.90;64.70
15983;DHT22;14442;50.196;8.096;2022-09-09T04:40:43;21.90;64.70
15983;DHT22;14442;50.196;8.096;2022-09-09T04:43:11;21.90;64.70
15983;DHT22;14442;50.196;8.096;2022-09-09T04:45:39;21.80;64.70
15983;DHT22;14442;50.196;8.096;2022-09-09T04:48:06;21.90;64.70
15983;DHT22;14442;50.196;8.096;2022-09-09T04:50:33;21.90;64.80
15983;DHT22;14442;50.196;8.096;2022-09-09T04:53:00;21.90;64.80
15983;DHT22;14442;50.196;8.096;2022-09-09T04:55:27;21.90;64.70
15983;DHT22;14442;50.196;8.096;2022-09-09T04:57:54;21.90;64.70
15983;DHT22;14442;50.196;8.096;2022-09-09T05:00:21;21.90;64.70
15983;DHT22;14442;50.196;8.096;2022-09-09T05:02:49;21.90;64.70
15983;DHT22;14442;50.196;8.096;2022-09-09T05:05:16;21.90;64.70
15983;DHT22;14442;50.196;8.096;2022-09-09T05:07:44;21.90;64.70
15983;DHT22;14442;50.196;8.096;2022-09-09T05:10:11;21.90;64.70
15983;DHT22;14442;50.196;8.096;2022-09-09T05:12:39;21.80;64.60
15983;DHT22;14442;50.196;8.096;2022-09-09T05:15:07;21.80;64.60
15983;DHT22;14442;50.196;8.096;2022-09-09T05:17:33;21.80;65.40
15983;DHT22;14442;50.196;8.096;2022-09-09T05:20:02;21.80;64.60
15983;DHT22;14442;50.196;8.096;2022-09-09T05:22:29;21.80;64.60
15983;DHT22;14442;50.196;8.096;2022-09-09T05:24:56;21.80;64.60
15983;DHT22;14442;50.196;8.096;2022-09-09T05:27:23;21.80;64.60
15983;DHT22;14442;50.196;8.096;2022-09-09T05:29:50;21.80;64.60
15983;DHT22;14442;50.196;8.096;2022-09-09T05:32:17;21.80;65.40
15983;DHT22;14442;50.196;8.096;2022-09-09T05:34:44;21.80;64.70
15983;DHT22;14442;50.196;8.096;2022-09-09T05:37:13;21.80;64.60
15983;DHT22;14442;50.196;8.096;2022-09-09T05:39:40;21.80;64.60
15983;DHT22;14442;50.196;8.096;2022-09-09T05:42:06;21.80;64.70
15983;DHT22;14442;50.196;8.096;2022-09-09T05:44:33;21.80;64.70
15983;DHT22;14442;50.196;8.096;2022-09-09T05:47:00;21.80;64.70
15983;DHT22;14442;50.196;8.096;2022-09-09T05:49:27;21.80;64.70
15983;DHT22;14442;50.196;8.096;2022-09-09T05:51:53;21.80;64.70
15983;DHT22;14442;50.196;8.096;2022-09-09T05:54:22;21.80;64.70
15983;DHT22;14442;50.196;8.096;2022-09-09T05:56:48;21.80;64.60
15983;DHT22;14442;50.196;8.096;2022-09-09T05:59:16;21.80;64.70
15983;DHT22;14442;50.196;8.096;2022-09-09T06:01:43;21.80;64.70
15983;DHT22;14442;50.196;8.096;2022-09-09T06:04:11;21.80;64.60
15983;DHT22;14442;50.196;8.096;2022-09-09T06:06:38;21.70;64.60
15983;DHT22;14442;50.196;8.096;2022-09-09T06:09:06;21.80;64.70
15983;DHT22;14442;50.196;8.096;2022-09-09T06:11:37;21.80;65.30
15983;DHT22;14442;50.196;8.096;2022-09-09T06:14:05;21.80;64.70
15983;DHT22;14442;50.196;8.096;2022-09-09T06:16:33;21.80;64.70
15983;DHT22;14442;50.196;8.096;2022-09-09T06:19:03;21.80;64.60
15983;DHT22;14442;50.196;8.096;2022-09-09T06:21:31;21.80;64.60
15983;DHT22;14442;50.196;8.096;2022-09-09T06:23:59;21.80;64.60
15983;DHT22;14442;50.196;8.096;2022-09-09T06:26:27;21.80;64.60
15983;DHT22;14442;50.196;8.096;2022-09-09T06:28:56;21.80;64.60
15983;DHT22;14442;50.196;8.096;2022-09-09T06:31:25;21.80;64.60
15983;DHT22;14442;50.196;8.096;2022-09-09T06:33:56;21.80;64.70
15983;DHT22;14442;50.196;8.096;2022-09-09T06:36:24;21.80;64.60
15983;DHT22;14442;50.196;8.096;2022-09-09T06:38:51;21.80;64.60
15983;DHT22;14442;50.196;8.096;2022-09-09T06:41:20;21.80;64.70
15983;DHT22;14442;50.196;8.096;2022-09-09T06:43:47;21.80;64.70
15983;DHT22;14442;50.196;8.096;2022-09-09T06:46:16;21.80;64.70
15983;DHT22;14442;50.196;8.096;2022-09-09T06:48:44;21.80;64.80
15983;DHT22;14442;50.196;8.096;2022-09-09T06:51:14;21.80;64.80
15983;DHT22;14442;50.196;8.096;2022-09-09T06:53:42;21.80;64.90
15983;DHT22;14442;50.196;8.096;2022-09-09T06:56:20;21.80;64.90
15983;DHT22;14442;50.196;8.096;2022-09-09T06:58:49;21.80;64.90
15983;DHT22;14442;50.196;8.096;2022-09-09T07:01:18;21.80;64.90
15983;DHT22;14442;50.196;8.096;2022-09-09T07:03:47;21.80;64.90
15983;DHT22;14442;50.196;8.096;2022-09-09T07:06:16;21.80;64.90
15983;DHT22;14442;50.196;8.096;2022-09-09T07:08:47;21.80;64.90
15983;DHT22;14442;50.196;8.096;2022-09-09T07:11:14;21.80;64.90
15983;DHT22;14442;50.196;8.096;2022-09-09T07:13:41;21.80;64.90
15983;DHT22;14442;50.196;8.096;2022-09-09T07:16:10;21.80;64.80
15983;DHT22;14442;50.196;8.096;2022-09-09T07:18:39;21.80;65.00
15983;DHT22;14442;50.196;8.096;2022-09-09T07:21:06;21.90;65.30
15983;DHT22;14442;50.196;8.096;2022-09-09T07:23:34;21.80;65.40
15983;DHT22;14442;50.196;8.096;2022-09-09T07:26:01;21.90;65.40
15983;DHT22;14442;50.196;8.096;2022-09-09T07:28:28;21.90;65.70
15983;DHT22;14442;50.196;8.096;2022-09-09T07:30:57;22.00;65.90
15983;DHT22;14442;50.196;8.096;2022-09-09T07:33:24;22.00;65.60
15983;DHT22;14442;50.196;8.096;2022-09-09T07:35:53;22.00;65.60
15983;DHT22;14442;50.196;8.096;2022-09-09T07:38:20;22.00;65.80
15983;DHT22;14442;50.196;8.096;2022-09-09T07:40:48;22.00;66.00
15983;DHT22;14442;50.196;8.096;2022-09-09T07:43:15;22.00;66.30
15983;DHT22;14442;50.196;8.096;2022-09-09T07:45:42;22.10;67.60
15983;DHT22;14442;50.196;8.096;2022-09-09T07:48:09;22.10;67.60
15983;DHT22;14442;50.196;8.096;2022-09-09T07:50:36;22.10;67.70
15983;DHT22;14442;50.196;8.096;2022-09-09T07:53:04;22.10;67.70
15983;DHT22;14442;50.196;8.096;2022-09-09T07:55:31;22.10;67.50
15983;DHT22;14442;50.196;8.096;2022-09-09T07:57:58;22.10;67.80
15983;DHT22;14442;50.196;8.096;2022-09-09T08:00:25;22.10;67.50
15983;DHT22;14442;50.196;8.096;2022-09-09T08:02:53;22.10;67.30
15983;DHT22;14442;50.196;8.096;2022-09-09T08:05:20;22.10;67.30
15983;DHT22;14442;50.196;8.096;2022-09-09T08:07:47;22.10;67.20
15983;DHT22;14442;50.196;8.096;2022-09-09T08:10:15;22.10;67.20
15983;DHT22;14442;50.196;8.096;2022-09-09T08:12:43;22.10;67.20
15983;DHT22;14442;50.196;8.096;2022-09-09T08:15:10;22.20;67.40
15983;DHT22;14442;50.196;8.096;2022-09-09T08:17:37;22.20;67.30
15983;DHT22;14442;50.196;8.096;2022-09-09T08:20:05;22.20;67.30
15983;DHT22;14442;50.196;8.096;2022-09-09T08:22:32;22.20;67.40
15983;DHT22;14442;50.196;8.096;2022-09-09T08:24:59;22.20;67.30
15983;DHT22;14442;50.196;8.096;2022-09-09T08:27:29;22.20;67.30
15983;DHT22;14442;50.196;8.096;2022-09-09T08:29:57;22.20;67.30
15983;DHT22;14442;50.196;8.096;2022-09-09T08:32:24;22.20;67.30
15983;DHT22;14442;50.196;8.096;2022-09-09T08:34:51;22.10;67.30
15983;DHT22;14442;50.196;8.096;2022-09-09T08:37:18;22.10;66.60
15983;DHT22;14442;50.196;8.096;2022-09-09T08:39:45;22.00;65.20
15983;DHT22;14442;50.196;8.096;2022-09-09T08:42:29;22.00;64.70
15983;DHT22;14442;50.196;8.096;2022-09-09T08:45:25;21.90;64.80
15983;DHT22;14442;50.196;8.096;2022-09-09T08:48:08;21.90;65.70
15983;DHT22;14442;50.196;8.096;2022-09-09T08:50:37;22.00;65.90
15983;DHT22;14442;50.196;8.096;2022-09-09T08:53:12;22.00;65.60
15983;DHT22;14442;50.196;8.096;2022-09-09T08:55:45;22.00;65.60
15983;DHT22;14442;50.196;8.096;2022-09-09T08:58:16;22.00;65.60
15983;DHT22;14442;50.196;8.096;2022-09-09T09:00:55;22.00;65.50
15983;DHT22;14442;50.196;8.096;2022-09-09T09:03:30;22.00;65.50
15983;DHT22;14442;50.196;8.096;2022-09-09T09:06:06;22.00;65.50
15983;DHT22;14442;50.196;8.096;2022-09-09T09:08:39;22.00;65.70
15983;DHT22;14442;50.196;8.096;2022-09-09T09:11:10;22.20;66.20
15983;DHT22;14442;50.196;8.096;2022-09-09T09:13:43;22.20;66.10
15983;DHT22;14442;50.196;8.096;2022-09-09T09:16:17;22.20;66.30
15983;DHT22;14442;50.196;8.096;2022-09-09T09:18:46;22.20;66.40
15983;DHT22;14442;50.196;8.096;2022-09-09T09:21:16;22.20;66.50
15983;DHT22;14442;50.196;8.096;2022-09-09T09:23:49;22.20;67.20
15983;DHT22;14442;50.196;8.096;2022-09-09T09:26:19;22.20;66.50
15983;DHT22;14442;50.196;8.096;2022-09-09T09:28:49;22.20;66.40
15983;DHT22;14442;50.196;8.096;2022-09-09T09:31:18;22.20;66.20
15983;DHT22;14442;50.196;8.096;2022-09-09T09:33:48;22.20;66.30
15983;DHT22;14442;50.196;8.096;2022-09-09T09:36:16;22.30;66.50
15983;DHT22;14442;50.196;8.096;2022-09-09T09:38:53;22.20;66.30
15983;DHT22;14442;50.196;8.096;2022-09-09T09:41:32;22.30;66.00
15983;DHT22;14442;50.196;8.096;2022-09-09T09:44:01;22.30;66.10
15983;DHT22;14442;50.196;8.096;2022-09-09T09:46:28;22.30;66.40
15983;DHT22;14442;50.196;8.096;2022-09-09T09:48:58;22.30;66.40
15983;DHT22;14442;50.196;8.096;2022-09-09T09:51:26;22.30;66.40
15983;DHT22;14442;50.196;8.096;2022-09-09T09:53:53;22.30;66.30
15983;DHT22;14442;50.196;8.096;2022-09-09T09:56:26;22.30;66.30
15983;DHT22;14442;50.196;8.096;2022-09-09T09:58:55;22.30;66.30
15983;DHT22;14442;50.196;8.096;2022-09-09T10:01:24;22.30;66.20
15983;DHT22;14442;50.196;8.096;2022-09-09T10:03:53;22.30;66.40
15983;DHT22;14442;50.196;8.096;2022-09-09T10:06:30;22.30;66.20
15983;DHT22;14442;50.196;8.096;2022-09-09T10:08:56;22.40;66.30
15983;DHT22;14442;50.196;8.096;2022-09-09T10:11:33;22.40;66.20
15983;DHT22;14442;50.196;8.096;2022-09-09T10:14:08;22.40;66.30
15983;DHT22;14442;50.196;8.096;2022-09-09T10:16:52;22.40;66.20
15983;DHT22;14442;50.196;8.096;2022-09-09T10:19:29;22.40;66.30
15983;DHT22;14442;50.196;8.096;2022-09-09T10:22:03;22.40;66.20
15983;DHT22;14442;50.196;8.096;2022-09-09T10:27:46;22.50;66.10
15983;DHT22;14442;50.196;8.096;2022-09-09T10:30:18;22.50;66.20
15983;DHT22;14442;50.196;8.096;2022-09-09T10:32:49;22.50;65.50
15983;DHT22;14442;50.196;8.096;2022-09-09T10:35:31;22.40;65.40
15983;DHT22;14442;50.196;8.096;2022-09-09T10:38:11;22.40;65.30
15983;DHT22;14442;50.196;8.096;2022-09-09T10:40:48;22.40;64.80
15983;DHT22;14442;50.196;8.096;2022-09-09T10:43:29;22.40;64.90
15983;DHT22;14442;50.196;8.096;2022-09-09T10:46:06;22.40;64.90
15983;DHT22;14442;50.196;8.096;2022-09-09T10:48:48;22.50;65.00
15983;DHT22;14442;50.196;8.096;2022-09-09T10:51:27;22.50;65.10
15983;DHT22;14442;50.196;8.096;2022-09-09T10:54:07;22.50;65.10
15983;DHT22;14442;50.196;8.096;2022-09-09T10:56:38;22.60;65.10
15983;DHT22;14442;50.196;8.096;2022-09-09T10:59:10;22.60;65.10
15983;DHT22;14442;50.196;8.096;2022-09-09T11:01:42;22.60;65.10
15983;DHT22;14442;50.196;8.096;2022-09-09T11:04:15;22.60;65.00
15983;DHT22;14442;50.196;8.096;2022-09-09T11:06:48;22.60;65.00
15983;DHT22;14442;50.196;8.096;2022-09-09T11:09:21;22.60;65.10
15983;DHT22;14442;50.196;8.096;2022-09-09T11:11:52;22.70;65.20
15983;DHT22;14442;50.196;8.096;2022-09-09T11:14:25;22.70;65.30
15983;DHT22;14442;50.196;8.096;2022-09-09T11:16:56;22.70;65.30
15983;DHT22;14442;50.196;8.096;2022-09-09T11:19:29;22.70;65.20
15983;DHT22;14442;50.196;8.096;2022-09-09T11:21:58;22.70;65.20
15983;DHT22;14442;50.196;8.096;2022-09-09T11:24:29;22.70;65.20
15983;DHT22;14442;50.196;8.096;2022-09-09T11:27:02;22.70;65.20
15983;DHT22;14442;50.196;8.096;2022-09-09T11:29:52;22.70;65.10
15983;DHT22;14442;50.196;8.096;2022-09-09T11:35:38;22.70;65.90
15983;DHT22;14442;50.196;8.096;2022-09-09T11:38:25;22.70;65.20
15983;DHT22;14442;50.196;8.096;2022-09-09T11:40:58;22.70;65.20
15983;DHT22;14442;50.196;8.096;2022-09-09T11:43:29;22.70;65.00
15983;DHT22;14442;50.196;8.096;2022-09-09T11:45:59;22.80;65.20
15983;DHT22;14442;50.196;8.096;2022-09-09T11:48:32;22.90;65.30
15983;DHT22;14442;50.196;8.096;2022-09-09T11:51:04;22.90;65.30
15983;DHT22;14442;50.196;8.096;2022-09-09T11:53:33;22.80;65.10
15983;DHT22;14442;50.196;8.096;2022-09-09T11:56:02;22.90;65.40
15983;DHT22;14442;50.196;8.096;2022-09-09T11:58:36;22.90;65.40
15983;DHT22;14442;50.196;8.096;2022-09-09T12:01:25;22.70;65.10
15983;DHT22;14442;50.196;8.096;2022-09-09T12:04:06;22.90;65.40
15983;DHT22;14442;50.196;8.096;2022-09-09T12:06:44;22.90;65.10
15983;DHT22;14442;50.196;8.096;2022-09-09T12:09:22;22.90;65.30
15983;DHT22;14442;50.196;8.096;2022-09-09T12:11:51;22.90;65.30
15983;DHT22;14442;50.196;8.096;2022-09-09T12:14:23;22.90;65.20
15983;DHT22;14442;50.196;8.096;2022-09-09T12:17:09;23.00;65.30
15983;DHT22;14442;50.196;8.096;2022-09-09T12:19:36;23.00;65.20
15983;DHT22;14442;50.196;8.096;2022-09-09T12:22:07;23.00;64.70
15983;DHT22;14442;50.196;8.096;2022-09-09T12:24:41;23.00;64.70
15983;DHT22;14442;50.196;8.096;2022-09-09T12:27:15;23.00;64.70
15983;DHT22;14442;50.196;8.096;2022-09-09T12:29:50;23.10;64.70
15983;DHT22;14442;50.196;8.096;2022-09-09T12:32:24;23.10;64.70
15983;DHT22;14442;50.196;8.096;2022-09-09T12:34:54;23.10;64.00
15983;DHT22;14442;50.196;8.096;2022-09-09T12:37:29;23.10;63.60
15983;DHT22;14442;50.196;8.096;2022-09-09T12:39:59;23.20;63.60
15983;DHT22;14442;50.196;8.096;2022-09-09T12:42:28;23.20;62.80
15983;DHT22;14442;50.196;8.096;2022-09-09T12:44:56;23.20;63.00
15983;DHT22;14442;50.196;8.096;2022-09-09T12:47:31;23.30;62.80
15983;DHT22;14442;50.196;8.096;2022-09-09T12:50:01;23.30;63.00
15983;DHT22;14442;50.196;8.096;2022-09-09T12:52:31;23.30;62.80
15983;DHT22;14442;50.196;8.096;2022-09-09T12:55:01;23.40;62.90
15983;DHT22;14442;50.196;8.096;2022-09-09T12:57:34;23.30;62.70
15983;DHT22;14442;50.196;8.096;2022-09-09T13:00:06;23.30;63.00
15983;DHT22;14442;50.196;8.096;2022-09-09T13:02:35;23.30;62.80
15983;DHT22;14442;50.196;8.096;2022-09-09T13:05:16;23.30;62.90
15983;DHT22;14442;50.196;8.096;2022-09-09T13:07:44;23.30;62.70
15983;DHT22;14442;50.196;8.096;2022-09-09T13:10:14;23.40;63.20
15983;DHT22;14442;50.196;8.096;2022-09-09T13:12:42;23.40;63.00
15983;DHT22;14442;50.196;8.096;2022-09-09T13:15:19;23.40;63.00
15983;DHT22;14442;50.196;8.096;2022-09-09T13:17:54;23.50;63.10
15983;DHT22;14442;50.196;8.096;2022-09-09T13:20:22;23.50;62.90
15983;DHT22;14442;50.196;8.096;2022-09-09T13:22:52;23.50;62.90
15983;DHT22;14442;50.196;8.096;2022-09-09T13:25:22;23.60;62.90
15983;DHT22;14442;50.196;8.096;2022-09-09T13:28:20;23.60;62.80
15983;DHT22;14442;50.196;8.096;2022-09-09T13:30:56;23.60;62.60
15983;DHT22;14442;50.196;8.096;2022-09-09T13:33:31;23.60;62.70
15983;DHT22;14442;50.196;8.096;2022-09-09T13:36:00;23.60;62.70
15983;DHT22;14442;50.196;8.096;2022-09-09T13:38:32;23.60;62.90
15983;DHT22;14442;50.196;8.096;2022-09-09T13:41:01;23.60;62.80
15983;DHT22;14442;50.196;8.096;2022-09-09T13:43:30;23.60;62.30
15983;DHT22;14442;50.196;8.096;2022-09-09T13:45:59;23.60;62.10
15983;DHT22;14442;50.196;8.096;2022-09-09T13:48:27;23.50;62.20
15983;DHT22;14442;50.196;8.096;2022-09-09T13:51:00;23.50;62.90
15983;DHT22;14442;50.196;8.096;2022-09-09T13:53:27;23.50;62.40
15983;DHT22;14442;50.196;8.096;2022-09-09T13:55:55;23.40;62.30
15983;DHT22;14442;50.196;8.096;2022-09-09T13:58:23;23.40;62.30
15983;DHT22;14442;50.196;8.096;2022-09-09T14:00:51;23.40;62.40
15983;DHT22;14442;50.196;8.096;2022-09-09T14:03:19;23.40;62.60
15983;DHT22;14442;50.196;8.096;2022-09-09T14:05:46;23.40;62.50
15983;DHT22;14442;50.196;8.096;2022-09-09T14:08:20;23.30;62.40
15983;DHT22;14442;50.196;8.096;2022-09-09T14:10:47;23.30;62.50
15983;DHT22;14442;50.196;8.096;2022-09-09T14:13:15;23.20;62.40
15983;DHT22;14442;50.196;8.096;2022-09-09T14:15:42;23.20;62.40
15983;DHT22;14442;50.196;8.096;2022-09-09T14:18:11;23.20;62.30
15983;DHT22;14442;50.196;8.096;2022-09-09T14:20:38;23.20;62.40
15983;DHT22;14442;50.196;8.096;2022-09-09T14:23:05;23.20;62.60
15983;DHT22;14442;50.196;8.096;2022-09-09T14:25:32;23.20;62.80
15983;DHT22;14442;50.196;8.096;2022-09-09T14:27:58;23.30;63.30
15983;DHT22;14442;50.196;8.096;2022-09-09T14:30:27;23.20;63.10
15983;DHT22;14442;50.196;8.096;2022-09-09T14:32:53;23.20;63.00
15983;DHT22;14442;50.196;8.096;2022-09-09T14:35:20;23.30;63.30
15983;DHT22;14442;50.196;8.096;2022-09-09T14:37:47;23.20;63.70
15983;DHT22;14442;50.196;8.096;2022-09-09T14:40:14;23.30;64.10
15983;DHT22;14442;50.196;8.096;2022-09-09T14:42:42;23.40;65.20
15983;DHT22;14442;50.196;8.096;2022-09-09T14:45:09;23.50;64.30
15983;DHT22;14442;50.196;8.096;2022-09-09T14:47:37;23.50;64.30
15983;DHT22;14442;50.196;8.096;2022-09-09T14:50:05;23.60;64.50
15983;DHT22;14442;50.196;8.096;2022-09-09T14:52:33;23.60;64.60
15983;DHT22;14442;50.196;8.096;2022-09-09T14:55:00;23.60;64.50
15983;DHT22;14442;50.196;8.096;2022-09-09T14:57:26;23.70;64.40
15983;DHT22;14442;50.196;8.096;2022-09-09T14:59:53;23.70;64.30
15983;DHT22;14442;50.196;8.096;2022-09-09T15:02:20;23.60;64.30
15983;DHT22;14442;50.196;8.096;2022-09-09T15:04:48;23.60;64.40
15983;DHT22;14442;50.196;8.096;2022-09-09T15:07:15;23.60;64.50
15983;DHT22;14442;50.196;8.096;2022-09-09T15:09:42;23.60;64.60
15983;DHT22;14442;50.196;8.096;2022-09-09T15:12:08;23.50;64.50
15983;DHT22;14442;50.196;8.096;2022-09-09T15:14:35;23.50;64.70
15983;DHT22;14442;50.196;8.096;2022-09-09T15:17:02;23.50;64.60
15983;DHT22;14442;50.196;8.096;2022-09-09T15:19:28;23.50;64.70
15983;DHT22;14442;50.196;8.096;2022-09-09T15:21:56;23.50;64.70
15983;DHT22;14442;50.196;8.096;2022-09-09T15:24:25;23.40;64.70
15983;DHT22;14442;50.196;8.096;2022-09-09T15:26:52;23.40;64.70
15983;DHT22;14442;50.196;8.096;2022-09-09T15:29:19;23.40;64.70
15983;DHT22;14442;50.196;8.096;2022-09-09T15:31:45;23.40;65.50
15983;DHT22;14442;50.196;8.096;2022-09-09T15:34:13;23.40;64.80
15983;DHT22;14442;50.196;8.096;2022-09-09T15:36:41;23.40;64.00
15983;DHT22;14442;50.196;8.096;2022-09-09T15:39:11;23.30;64.40
15983;DHT22;14442;50.196;8.096;2022-09-09T15:41:38;23.30;64.50
15983;DHT22;14442;50.196;8.096;2022-09-09T15:44:05;23.30;64.60
15983;DHT22;14442;50.196;8.096;2022-09-09T15:46:33;23.30;64.50
15983;DHT22;14442;50.196;8.096;2022-09-09T15:49:04;23.30;64.30
15983;DHT22;14442;50.196;8.096;2022-09-09T15:51:31;23.30;64.20
15983;DHT22;14442;50.196;8.096;2022-09-09T15:53:59;23.30;64.20
15983;DHT22;14442;50.196;8.096;2022-09-09T15:56:28;23.30;64.00